WetterOnline ( https://www.wetteronline.de )

Wetter aktuell Schöna

Aktuelles Wetter: Lichtenhain/Mittelndorf (352m)

6-stündlich | Neueste Meldungen
Ortszeit Temperatur Wetter
Mi, 23.10. 20:00 14.7° C leicht bewölkt
Mi, 23.10. 14:00 17.9° C bewölkt
Mi, 23.10. 8:00 12.9° C bedeckt
Mi, 23.10. 2:00 11.3° C bedeckt
Di, 22.10. 20:00 13.6° C wolkig
Di, 22.10. 14:00 17.5° C leicht bewölkt
Di, 22.10. 8:00 9.0° C wolkig
Di, 22.10. 2:00 11.2° C wolkig
Ortszeit Temperatur Wetter
Mi, 23.10. 22:00 15.0° C bedeckt
Mi, 23.10. 21:50 15.0° C bedeckt
Mi, 23.10. 21:40 15.1° C bedeckt
Mi, 23.10. 21:30 15.0° C bedeckt
Mi, 23.10. 21:20 15.0° C bedeckt
Mi, 23.10. 21:10 15.2° C bedeckt
Mi, 23.10. 21:00 14.9° C bedeckt
Mi, 23.10. 20:30 14.7° C bewölkt
Mi, 23.10. 20:00 14.7° C leicht bewölkt
Mi, 23.10. 19:30 14.8° C wolkenlos
Mi, 23.10. 19:00 15.0° C wolkenlos
Ortszeit Relative Feuchte Sichtweite
Mi, 23.10. 20:00 82% 7 km
Mi, 23.10. 14:00 73% 11 km
Mi, 23.10. 8:00 91% 8 km
Mi, 23.10. 2:00 94% 6 km
Di, 22.10. 20:00 90% 18 km
Di, 22.10. 14:00 66% 26 km
Di, 22.10. 8:00 97% 4.4 km
Di, 22.10. 2:00 97% 14 km
Ortszeit Relative Feuchte Sichtweite
Mi, 23.10. 22:00 80% 7 km
Mi, 23.10. 21:50 80% -
Mi, 23.10. 21:40 80% -
Mi, 23.10. 21:30 81% 7 km
Mi, 23.10. 21:20 81% -
Mi, 23.10. 21:10 80% -
Mi, 23.10. 21:00 81% 7 km
Mi, 23.10. 20:30 82% 7 km
Mi, 23.10. 20:00 82% 7 km
Mi, 23.10. 19:30 83% 6 km
Mi, 23.10. 19:00 83% 6 km
Ortszeit Niederschlagsmenge Niederschlagsart
Mi, 23.10. 20:00 0.0 l/m2 in 12 Std. -
Mi, 23.10. 14:00 0.0 l/m2 in 6 Std. -
Mi, 23.10. 8:00 0.0 l/m2 in 12 Std. -
Mi, 23.10. 2:00 0.0 l/m2 in 6 Std. -
Di, 22.10. 20:00 0.0 l/m2 in 12 Std. -
Di, 22.10. 14:00 0.0 l/m2 in 6 Std. -
Di, 22.10. 8:00 0.1 l/m2 in 12 Std. -
Di, 22.10. 2:00 0.0 l/m2 in 6 Std. -
Ortszeit Niederschlagsmenge Niederschlagsart
Mi, 23.10. 22:00 0.0 l/m2 in 1 Std. -
Mi, 23.10. 21:50 keine Meldung -
Mi, 23.10. 21:40 keine Meldung -
Mi, 23.10. 21:30 0.0 l/m2 in 1 Std. -
Mi, 23.10. 21:20 keine Meldung -
Mi, 23.10. 21:10 keine Meldung -
Mi, 23.10. 21:00 0.0 l/m2 in 1 Std. -
Mi, 23.10. 20:30 0.0 l/m2 in 1 Std. -
Mi, 23.10. 20:00 0.0 l/m2 in 1 Std. -
Mi, 23.10. 19:30 0.0 l/m2 in 1 Std. -
Mi, 23.10. 19:00 0.0 l/m2 in 1 Std. -
Ortszeit Stärke Spitze Richtung
km/h Bft. km/h Grad Sektor
Mi, 23.10. 20:00 11 2 32 140° SO
Mi, 23.10. 14:00 18 3 29 170° S
Mi, 23.10. 8:00 7 2 19 120° SO
Mi, 23.10. 2:00 4 1 14 310° NW
Di, 22.10. 20:00 0 0 18 - -
Di, 22.10. 14:00 6 1 15 330° NW
Di, 22.10. 8:00 4 1 11 270° W
Di, 22.10. 2:00 2 1 9 60° NO
Ortszeit Stärke Spitze Richtung
km/h Bft. km/h Grad Sektor
Mi, 23.10. 22:00 15 3 22 130° SO
Mi, 23.10. 21:50 15 3 - 130° SO
Mi, 23.10. 21:40 11 2 - 130° SO
Mi, 23.10. 21:30 9 2 22 130° SO
Mi, 23.10. 21:20 9 2 - 130° SO
Mi, 23.10. 21:10 13 3 - 130° SO
Mi, 23.10. 21:00 7 2 22 140° SO
Mi, 23.10. 20:30 14 3 22 140° SO
Mi, 23.10. 20:00 11 2 22 140° SO
Mi, 23.10. 19:30 13 3 20 150° SO
Mi, 23.10. 19:00 14 3 22 150° SO
Ortszeit Untergrenze Bedeckung Gattung
total tief tief mittel hoch
Mi, 23.10. 20:00 630 m 2/8 2/8 - - -
Mi, 23.10. 14:00 570 m 7/8 7/8 - - -
Mi, 23.10. 8:00 1020 m 8/8 8/8 - - -
Mi, 23.10. 2:00 600 m 8/8 8/8 - - -
Di, 22.10. 20:00 8100 m 8/8 0/8 - - -
Di, 22.10. 14:00 9000 m 8/8 0/8 - - -
Di, 22.10. 8:00 7500 m 8/8 0/8 - - -
Di, 22.10. 2:00 8100 m 8/8 0/8 - - -
Ortszeit Bedeckungsgrad in Achtel und Wolkenuntergrenze
Mi, 23.10. 22:00 8(540m)
Mi, 23.10. 21:50 8(540m)
Mi, 23.10. 21:40 8(540m)
Mi, 23.10. 21:30 8(510m)
Mi, 23.10. 21:20 8(510m)
Mi, 23.10. 21:10 8(510m)
Mi, 23.10. 21:00 8(570m)
Mi, 23.10. 20:30 7(600m)
Mi, 23.10. 20:00 2(630m)
Mi, 23.10. 19:30 keine Wolken
Mi, 23.10. 19:00 keine Wolken
Ortszeit Luftdruck NN (hPa) Tendenz (hPa in 3 Std.)
Mi, 23.10. 20:00 1016 - 0,7
Mi, 23.10. 14:00 1018 - 1,9
Mi, 23.10. 8:00 1021 - 1,4
Mi, 23.10. 2:00 1024 - 0,3
Di, 22.10. 20:00 1024 + 0,8
Di, 22.10. 14:00 1024 - 0,9
Di, 22.10. 8:00 1024 + 0,8
Di, 22.10. 2:00 1023 + 0,5
Ortszeit Luftdruck NN (hPa) Tendenz (hPa in 3 Std.)
Mi, 23.10. 22:00 1015 - 1,2
Mi, 23.10. 21:50 1015 keine Meldung
Mi, 23.10. 21:40 1015 keine Meldung
Mi, 23.10. 21:30 1015 - 0,9
Mi, 23.10. 21:20 1015 keine Meldung
Mi, 23.10. 21:10 1016 keine Meldung
Mi, 23.10. 21:00 1016 - 0,5
Mi, 23.10. 20:30 1016 - 0,8
Mi, 23.10. 20:00 1016 - 0,7
Mi, 23.10. 19:30 1016 - 0,6
Mi, 23.10. 19:00 1016 - 0,7
Ortszeit Schneehöhe (cm)
Mi, 23.10. 20:00 0
Mi, 23.10. 14:00 0
Mi, 23.10. 8:00 0
Mi, 23.10. 2:00 0
Di, 22.10. 20:00 0
Di, 22.10. 14:00 0
Di, 22.10. 8:00 0
Di, 22.10. 2:00 0
Ortszeit Schneehöhe (cm)
Mi, 23.10. 22:00 0
Mi, 23.10. 21:50 0
Mi, 23.10. 21:40 0
Mi, 23.10. 21:30 0
Mi, 23.10. 21:20 0
Mi, 23.10. 21:10 0
Mi, 23.10. 21:00 0
Mi, 23.10. 20:30 0
Mi, 23.10. 20:00 0
Mi, 23.10. 19:30 0
Mi, 23.10. 19:00 0
Link zu dieser Seite / Seite empfehlen

Das Wetter in ...